sensor_id;sensor_type;location;lat;lon;timestamp;temperature;humidity
8858;DHT22;4465;50.904;4.696;2023-01-26T00:01:16;0.00;99.90
8858;DHT22;4465;50.904;4.696;2023-01-26T00:03:43;0.00;99.90
8858;DHT22;4465;50.904;4.696;2023-01-26T00:06:13;0.00;99.90
8858;DHT22;4465;50.904;4.696;2023-01-26T00:08:41;0.00;99.90
8858;DHT22;4465;50.904;4.696;2023-01-26T00:11:09;0.00;99.90
8858;DHT22;4465;50.904;4.696;2023-01-26T00:13:36;0.00;99.90
8858;DHT22;4465;50.904;4.696;2023-01-26T00:16:03;0.00;99.90
8858;DHT22;4465;50.904;4.696;2023-01-26T00:18:30;0.00;99.90
8858;DHT22;4465;50.904;4.696;2023-01-26T00:21:01;0.00;99.90
8858;DHT22;4465;50.904;4.696;2023-01-26T00:23:29;0.00;99.90
8858;DHT22;4465;50.904;4.696;2023-01-26T00:25:55;0.00;99.90
8858;DHT22;4465;50.904;4.696;2023-01-26T00:28:22;0.00;99.90
8858;DHT22;4465;50.904;4.696;2023-01-26T00:30:48;0.00;99.90
8858;DHT22;4465;50.904;4.696;2023-01-26T00:33:14;0.10;99.90
8858;DHT22;4465;50.904;4.696;2023-01-26T00:35:41;0.20;99.90
8858;DHT22;4465;50.904;4.696;2023-01-26T00:38:13;0.10;99.90
8858;DHT22;4465;50.904;4.696;2023-01-26T00:40:40;0.10;99.90
8858;DHT22;4465;50.904;4.696;2023-01-26T00:43:06;0.10;99.90
8858;DHT22;4465;50.904;4.696;2023-01-26T00:45:33;0.10;99.90
8858;DHT22;4465;50.904;4.696;2023-01-26T00:47:59;0.10;99.90
8858;DHT22;4465;50.904;4.696;2023-01-26T00:50:27;0.10;99.90
8858;DHT22;4465;50.904;4.696;2023-01-26T00:52:53;0.20;99.90
8858;DHT22;4465;50.904;4.696;2023-01-26T00:55:19;0.20;99.90
8858;DHT22;4465;50.904;4.696;2023-01-26T00:57:49;0.20;99.90
8858;DHT22;4465;50.904;4.696;2023-01-26T01:00:16;0.20;99.90
8858;DHT22;4465;50.904;4.696;2023-01-26T01:02:42;0.20;99.90
8858;DHT22;4465;50.904;4.696;2023-01-26T01:05:08;0.10;99.90
8858;DHT22;4465;50.904;4.696;2023-01-26T01:07:34;0.10;99.90
8858;DHT22;4465;50.904;4.696;2023-01-26T01:10:00;0.10;99.90
8858;DHT22;4465;50.904;4.696;2023-01-26T01:12:27;0.10;99.90
8858;DHT22;4465;50.904;4.696;2023-01-26T01:14:53;0.20;99.90
8858;DHT22;4465;50.904;4.696;2023-01-26T01:17:19;0.20;99.90
8858;DHT22;4465;50.904;4.696;2023-01-26T01:19:45;0.20;99.90
8858;DHT22;4465;50.904;4.696;2023-01-26T01:22:14;0.20;99.90
8858;DHT22;4465;50.904;4.696;2023-01-26T01:24:41;0.20;99.90
8858;DHT22;4465;50.904;4.696;2023-01-26T01:27:07;0.20;99.90
8858;DHT22;4465;50.904;4.696;2023-01-26T01:29:33;0.20;99.90
8858;DHT22;4465;50.904;4.696;2023-01-26T01:31:59;0.20;99.90
8858;DHT22;4465;50.904;4.696;2023-01-26T01:34:25;0.20;99.90
8858;DHT22;4465;50.904;4.696;2023-01-26T01:36:51;0.30;99.90
8858;DHT22;4465;50.904;4.696;2023-01-26T01:39:18;0.10;99.90
8858;DHT22;4465;50.904;4.696;2023-01-26T01:41:44;0.10;99.90
8858;DHT22;4465;50.904;4.696;2023-01-26T01:44:20;0.10;99.90
8858;DHT22;4465;50.904;4.696;2023-01-26T01:46:57;0.10;99.90
8858;DHT22;4465;50.904;4.696;2023-01-26T01:49:26;0.10;99.90
8858;DHT22;4465;50.904;4.696;2023-01-26T01:51:59;0.10;99.90
8858;DHT22;4465;50.904;4.696;2023-01-26T01:57:17;0.20;99.90
8858;DHT22;4465;50.904;4.696;2023-01-26T02:00:06;0.20;99.90
8858;DHT22;4465;50.904;4.696;2023-01-26T02:02:34;0.10;99.90
8858;DHT22;4465;50.904;4.696;2023-01-26T02:05:09;0.10;99.90
8858;DHT22;4465;50.904;4.696;2023-01-26T02:07:38;0.20;99.90
8858;DHT22;4465;50.904;4.696;2023-01-26T02:10:04;0.20;99.90
8858;DHT22;4465;50.904;4.696;2023-01-26T02:12:43;0.20;99.90
8858;DHT22;4465;50.904;4.696;2023-01-26T02:15:10;0.20;99.90
8858;DHT22;4465;50.904;4.696;2023-01-26T02:17:37;0.30;99.90
8858;DHT22;4465;50.904;4.696;2023-01-26T02:20:06;0.20;99.90
8858;DHT22;4465;50.904;4.696;2023-01-26T02:25:39;0.30;99.90
8858;DHT22;4465;50.904;4.696;2023-01-26T02:28:07;0.30;99.90
8858;DHT22;4465;50.904;4.696;2023-01-26T02:30:33;0.30;99.90
8858;DHT22;4465;50.904;4.696;2023-01-26T02:32:59;0.30;99.90
8858;DHT22;4465;50.904;4.696;2023-01-26T02:35:28;0.30;99.90
8858;DHT22;4465;50.904;4.696;2023-01-26T02:37:53;0.40;99.90
8858;DHT22;4465;50.904;4.696;2023-01-26T02:42:51;0.40;99.90
8858;DHT22;4465;50.904;4.696;2023-01-26T02:45:21;0.40;99.90
8858;DHT22;4465;50.904;4.696;2023-01-26T02:47:48;0.40;99.90
8858;DHT22;4465;50.904;4.696;2023-01-26T02:50:15;0.40;99.90
8858;DHT22;4465;50.904;4.696;2023-01-26T02:52:41;0.40;99.90
8858;DHT22;4465;50.904;4.696;2023-01-26T02:55:08;0.60;99.90
8858;DHT22;4465;50.904;4.696;2023-01-26T02:57:58;0.40;99.90
8858;DHT22;4465;50.904;4.696;2023-01-26T03:00:30;0.40;99.90
8858;DHT22;4465;50.904;4.696;2023-01-26T03:02:58;0.40;99.90
8858;DHT22;4465;50.904;4.696;2023-01-26T03:05:26;0.40;99.90
8858;DHT22;4465;50.904;4.696;2023-01-26T03:07:53;0.50;99.90
8858;DHT22;4465;50.904;4.696;2023-01-26T03:10:19;0.50;99.90
8858;DHT22;4465;50.904;4.696;2023-01-26T03:12:48;0.50;99.90
8858;DHT22;4465;50.904;4.696;2023-01-26T03:15:14;0.60;99.90
8858;DHT22;4465;50.904;4.696;2023-01-26T03:18:05;0.60;99.90
8858;DHT22;4465;50.904;4.696;2023-01-26T03:20:50;0.60;99.90
8858;DHT22;4465;50.904;4.696;2023-01-26T03:23:34;0.60;99.90
8858;DHT22;4465;50.904;4.696;2023-01-26T03:26:19;0.60;99.90
8858;DHT22;4465;50.904;4.696;2023-01-26T03:29:03;0.60;99.90
8858;DHT22;4465;50.904;4.696;2023-01-26T03:31:29;0.60;99.90
8858;DHT22;4465;50.904;4.696;2023-01-26T03:33:55;0.70;99.90
8858;DHT22;4465;50.904;4.696;2023-01-26T03:36:21;0.70;99.90
8858;DHT22;4465;50.904;4.696;2023-01-26T03:38:47;0.70;99.90
8858;DHT22;4465;50.904;4.696;2023-01-26T03:41:13;0.70;99.90
8858;DHT22;4465;50.904;4.696;2023-01-26T03:43:58;0.80;99.90
8858;DHT22;4465;50.904;4.696;2023-01-26T03:46:42;0.70;99.90
8858;DHT22;4465;50.904;4.696;2023-01-26T03:49:26;0.70;99.90
8858;DHT22;4465;50.904;4.696;2023-01-26T03:52:10;0.70;99.90
8858;DHT22;4465;50.904;4.696;2023-01-26T03:54:54;0.70;99.90
8858;DHT22;4465;50.904;4.696;2023-01-26T03:57:39;0.80;99.90
8858;DHT22;4465;50.904;4.696;2023-01-26T04:00:05;0.80;99.90
8858;DHT22;4465;50.904;4.696;2023-01-26T04:02:31;0.80;99.90
8858;DHT22;4465;50.904;4.696;2023-01-26T04:05:15;0.80;99.90
8858;DHT22;4465;50.904;4.696;2023-01-26T04:08:02;0.80;99.90
8858;DHT22;4465;50.904;4.696;2023-01-26T04:10:47;0.80;99.90
8858;DHT22;4465;50.904;4.696;2023-01-26T04:13:13;0.80;99.90
8858;DHT22;4465;50.904;4.696;2023-01-26T04:15:57;0.90;99.90
8858;DHT22;4465;50.904;4.696;2023-01-26T04:18:47;0.90;99.90
8858;DHT22;4465;50.904;4.696;2023-01-26T04:21:34;0.90;99.90
8858;DHT22;4465;50.904;4.696;2023-01-26T04:24:02;0.90;99.90
8858;DHT22;4465;50.904;4.696;2023-01-26T04:26:35;0.90;99.90
8858;DHT22;4465;50.904;4.696;2023-01-26T04:29:02;0.90;99.90
8858;DHT22;4465;50.904;4.696;2023-01-26T04:31:28;0.90;99.90
8858;DHT22;4465;50.904;4.696;2023-01-26T04:33:54;0.90;99.90
8858;DHT22;4465;50.904;4.696;2023-01-26T04:36:20;0.90;99.90
8858;DHT22;4465;50.904;4.696;2023-01-26T04:38:45;0.90;99.90
8858;DHT22;4465;50.904;4.696;2023-01-26T04:41:11;0.90;99.90
8858;DHT22;4465;50.904;4.696;2023-01-26T04:43:37;1.00;99.90
8858;DHT22;4465;50.904;4.696;2023-01-26T04:46:06;1.00;99.90
8858;DHT22;4465;50.904;4.696;2023-01-26T04:48:34;1.00;99.90
8858;DHT22;4465;50.904;4.696;2023-01-26T04:51:07;1.00;99.90
8858;DHT22;4465;50.904;4.696;2023-01-26T04:53:34;1.00;99.90
8858;DHT22;4465;50.904;4.696;2023-01-26T04:56:00;1.10;99.90
8858;DHT22;4465;50.904;4.696;2023-01-26T04:58:26;1.00;99.90
8858;DHT22;4465;50.904;4.696;2023-01-26T05:00:54;1.10;99.90
8858;DHT22;4465;50.904;4.696;2023-01-26T05:03:23;1.00;99.90
8858;DHT22;4465;50.904;4.696;2023-01-26T05:05:53;1.00;99.90
8858;DHT22;4465;50.904;4.696;2023-01-26T05:08:21;1.00;99.90
8858;DHT22;4465;50.904;4.696;2023-01-26T05:10:47;1.00;99.90
8858;DHT22;4465;50.904;4.696;2023-01-26T05:13:13;1.00;99.90
8858;DHT22;4465;50.904;4.696;2023-01-26T05:15:39;1.00;99.90
8858;DHT22;4465;50.904;4.696;2023-01-26T05:18:06;1.10;99.90
8858;DHT22;4465;50.904;4.696;2023-01-26T05:20:32;1.10;99.90
8858;DHT22;4465;50.904;4.696;2023-01-26T05:22:58;1.10;99.90
8858;DHT22;4465;50.904;4.696;2023-01-26T05:25:26;1.10;99.90
8858;DHT22;4465;50.904;4.696;2023-01-26T05:27:52;1.10;99.90
8858;DHT22;4465;50.904;4.696;2023-01-26T05:30:18;1.00;99.90
8858;DHT22;4465;50.904;4.696;2023-01-26T05:32:45;1.10;99.90
8858;DHT22;4465;50.904;4.696;2023-01-26T05:35:11;1.10;99.90
8858;DHT22;4465;50.904;4.696;2023-01-26T05:37:37;1.10;99.90
8858;DHT22;4465;50.904;4.696;2023-01-26T05:40:04;1.10;99.90
8858;DHT22;4465;50.904;4.696;2023-01-26T05:42:30;1.10;99.90
8858;DHT22;4465;50.904;4.696;2023-01-26T05:44:56;1.10;99.90
8858;DHT22;4465;50.904;4.696;2023-01-26T05:47:22;1.10;99.90
8858;DHT22;4465;50.904;4.696;2023-01-26T05:49:48;1.10;99.90
8858;DHT22;4465;50.904;4.696;2023-01-26T05:52:19;1.10;99.90
8858;DHT22;4465;50.904;4.696;2023-01-26T05:54:46;1.10;99.90
8858;DHT22;4465;50.904;4.696;2023-01-26T05:57:12;1.10;99.90
8858;DHT22;4465;50.904;4.696;2023-01-26T05:59:39;1.10;99.90
8858;DHT22;4465;50.904;4.696;2023-01-26T06:02:05;1.20;99.90
8858;DHT22;4465;50.904;4.696;2023-01-26T06:04:31;1.20;99.90
8858;DHT22;4465;50.904;4.696;2023-01-26T06:06:58;1.20;99.90
8858;DHT22;4465;50.904;4.696;2023-01-26T06:09:27;1.20;99.90
8858;DHT22;4465;50.904;4.696;2023-01-26T06:11:53;1.20;99.90
8858;DHT22;4465;50.904;4.696;2023-01-26T06:14:22;1.20;99.90
8858;DHT22;4465;50.904;4.696;2023-01-26T06:16:48;1.20;99.90
8858;DHT22;4465;50.904;4.696;2023-01-26T06:19:14;1.30;99.90
8858;DHT22;4465;50.904;4.696;2023-01-26T06:21:40;1.20;99.90
8858;DHT22;4465;50.904;4.696;2023-01-26T06:24:06;1.20;99.90
8858;DHT22;4465;50.904;4.696;2023-01-26T06:26:36;1.30;99.90
8858;DHT22;4465;50.904;4.696;2023-01-26T06:29:02;1.20;99.90
8858;DHT22;4465;50.904;4.696;2023-01-26T06:31:28;1.30;99.90
8858;DHT22;4465;50.904;4.696;2023-01-26T06:33:55;1.30;99.90
8858;DHT22;4465;50.904;4.696;2023-01-26T06:36:21;1.30;99.90
8858;DHT22;4465;50.904;4.696;2023-01-26T06:38:49;1.30;99.90
8858;DHT22;4465;50.904;4.696;2023-01-26T06:41:16;1.30;99.90
8858;DHT22;4465;50.904;4.696;2023-01-26T06:43:45;1.30;99.90
8858;DHT22;4465;50.904;4.696;2023-01-26T06:46:11;1.40;99.90
8858;DHT22;4465;50.904;4.696;2023-01-26T06:48:40;1.40;99.90
8858;DHT22;4465;50.904;4.696;2023-01-26T06:53:54;1.40;99.90
8858;DHT22;4465;50.904;4.696;2023-01-26T06:56:21;1.40;99.90
8858;DHT22;4465;50.904;4.696;2023-01-26T06:58:47;1.40;99.90
8858;DHT22;4465;50.904;4.696;2023-01-26T07:01:20;1.40;99.90
8858;DHT22;4465;50.904;4.696;2023-01-26T07:03:53;1.40;99.90
8858;DHT22;4465;50.904;4.696;2023-01-26T07:06:20;1.50;99.90
8858;DHT22;4465;50.904;4.696;2023-01-26T07:08:47;1.50;99.90
8858;DHT22;4465;50.904;4.696;2023-01-26T07:11:13;1.50;99.90
8858;DHT22;4465;50.904;4.696;2023-01-26T07:13:39;1.50;99.90
8858;DHT22;4465;50.904;4.696;2023-01-26T07:16:10;1.40;99.90
8858;DHT22;4465;50.904;4.696;2023-01-26T07:18:37;1.50;99.90
8858;DHT22;4465;50.904;4.696;2023-01-26T07:21:05;1.50;99.90
8858;DHT22;4465;50.904;4.696;2023-01-26T07:23:32;1.50;99.90
8858;DHT22;4465;50.904;4.696;2023-01-26T07:25:58;1.50;99.90
8858;DHT22;4465;50.904;4.696;2023-01-26T07:28:25;1.50;99.90
8858;DHT22;4465;50.904;4.696;2023-01-26T07:30:56;1.50;99.90
8858;DHT22;4465;50.904;4.696;2023-01-26T07:33:22;1.60;99.90
8858;DHT22;4465;50.904;4.696;2023-01-26T07:35:54;1.60;99.90
8858;DHT22;4465;50.904;4.696;2023-01-26T07:38:21;1.60;99.90
8858;DHT22;4465;50.904;4.696;2023-01-26T07:40:47;1.60;99.90
8858;DHT22;4465;50.904;4.696;2023-01-26T07:43:14;1.60;99.90
8858;DHT22;4465;50.904;4.696;2023-01-26T07:45:52;1.60;99.90
8858;DHT22;4465;50.904;4.696;2023-01-26T07:48:19;1.60;99.90
8858;DHT22;4465;50.904;4.696;2023-01-26T07:50:46;1.70;99.90
8858;DHT22;4465;50.904;4.696;2023-01-26T07:53:16;1.70;99.90
8858;DHT22;4465;50.904;4.696;2023-01-26T07:55:44;1.60;99.90
8858;DHT22;4465;50.904;4.696;2023-01-26T07:58:11;1.70;99.90
8858;DHT22;4465;50.904;4.696;2023-01-26T08:00:38;1.60;99.90
8858;DHT22;4465;50.904;4.696;2023-01-26T08:03:04;1.80;99.90
8858;DHT22;4465;50.904;4.696;2023-01-26T08:05:31;1.70;99.90
8858;DHT22;4465;50.904;4.696;2023-01-26T08:07:58;1.70;99.90
8858;DHT22;4465;50.904;4.696;2023-01-26T08:10:25;1.70;99.90
8858;DHT22;4465;50.904;4.696;2023-01-26T08:12:51;1.70;99.90
8858;DHT22;4465;50.904;4.696;2023-01-26T08:15:19;1.70;99.90
8858;DHT22;4465;50.904;4.696;2023-01-26T08:17:45;1.80;99.90
8858;DHT22;4465;50.904;4.696;2023-01-26T08:20:12;1.70;99.90
8858;DHT22;4465;50.904;4.696;2023-01-26T08:22:38;1.70;99.90
8858;DHT22;4465;50.904;4.696;2023-01-26T08:25:06;1.70;99.90
8858;DHT22;4465;50.904;4.696;2023-01-26T08:27:32;1.70;99.90
8858;DHT22;4465;50.904;4.696;2023-01-26T08:29:58;1.80;99.90
8858;DHT22;4465;50.904;4.696;2023-01-26T08:32:26;1.90;99.90
8858;DHT22;4465;50.904;4.696;2023-01-26T08:34:53;1.80;99.90
8858;DHT22;4465;50.904;4.696;2023-01-26T08:37:19;1.90;99.90
8858;DHT22;4465;50.904;4.696;2023-01-26T08:39:45;1.90;99.90
8858;DHT22;4465;50.904;4.696;2023-01-26T08:42:11;1.80;99.90
8858;DHT22;4465;50.904;4.696;2023-01-26T08:44:37;1.90;99.90
8858;DHT22;4465;50.904;4.696;2023-01-26T08:47:03;1.80;99.90
8858;DHT22;4465;50.904;4.696;2023-01-26T08:49:28;1.90;99.90
8858;DHT22;4465;50.904;4.696;2023-01-26T08:51:54;1.90;99.90
8858;DHT22;4465;50.904;4.696;2023-01-26T08:54:20;1.90;99.90
8858;DHT22;4465;50.904;4.696;2023-01-26T08:56:46;1.90;99.90
8858;DHT22;4465;50.904;4.696;2023-01-26T08:59:14;1.90;99.90
8858;DHT22;4465;50.904;4.696;2023-01-26T09:01:40;1.90;99.90
8858;DHT22;4465;50.904;4.696;2023-01-26T09:04:06;2.00;99.90
8858;DHT22;4465;50.904;4.696;2023-01-26T09:06:32;2.00;99.90
8858;DHT22;4465;50.904;4.696;2023-01-26T09:08:58;2.10;99.90
8858;DHT22;4465;50.904;4.696;2023-01-26T09:11:24;2.00;99.90
8858;DHT22;4465;50.904;4.696;2023-01-26T09:13:51;2.10;99.90
8858;DHT22;4465;50.904;4.696;2023-01-26T09:16:23;2.10;99.90
8858;DHT22;4465;50.904;4.696;2023-01-26T09:18:50;2.10;99.90
8858;DHT22;4465;50.904;4.696;2023-01-26T09:21:16;2.10;99.90
8858;DHT22;4465;50.904;4.696;2023-01-26T09:23:43;2.10;99.90
8858;DHT22;4465;50.904;4.696;2023-01-26T09:26:10;2.20;99.90
8858;DHT22;4465;50.904;4.696;2023-01-26T09:28:36;2.20;99.90
8858;DHT22;4465;50.904;4.696;2023-01-26T09:31:08;2.20;99.90
8858;DHT22;4465;50.904;4.696;2023-01-26T09:33:35;2.30;99.90
8858;DHT22;4465;50.904;4.696;2023-01-26T09:36:06;2.30;99.90
8858;DHT22;4465;50.904;4.696;2023-01-26T09:38:34;2.30;99.90
8858;DHT22;4465;50.904;4.696;2023-01-26T09:41:31;2.30;99.90
8858;DHT22;4465;50.904;4.696;2023-01-26T09:44:04;2.30;99.90
8858;DHT22;4465;50.904;4.696;2023-01-26T10:00:20;2.50;99.90
8858;DHT22;4465;50.904;4.696;2023-01-26T10:08:23;2.60;99.90
8858;DHT22;4465;50.904;4.696;2023-01-26T10:11:45;2.60;99.90
8858;DHT22;4465;50.904;4.696;2023-01-26T10:16:52;2.70;99.90
8858;DHT22;4465;50.904;4.696;2023-01-26T10:22:04;2.70;99.90
8858;DHT22;4465;50.904;4.696;2023-01-26T10:24:32;2.70;99.90
8858;DHT22;4465;50.904;4.696;2023-01-26T10:26:58;2.80;99.90
8858;DHT22;4465;50.904;4.696;2023-01-26T10:29:24;2.80;99.90
8858;DHT22;4465;50.904;4.696;2023-01-26T10:31:50;2.80;99.90
8858;DHT22;4465;50.904;4.696;2023-01-26T10:34:24;2.80;99.90
8858;DHT22;4465;50.904;4.696;2023-01-26T10:36:55;2.80;99.90
8858;DHT22;4465;50.904;4.696;2023-01-26T10:39:25;2.90;99.90
8858;DHT22;4465;50.904;4.696;2023-01-26T10:41:59;2.80;99.90
8858;DHT22;4465;50.904;4.696;2023-01-26T10:44:34;2.90;99.90
8858;DHT22;4465;50.904;4.696;2023-01-26T10:47:17;2.90;99.90
8858;DHT22;4465;50.904;4.696;2023-01-26T10:49:44;2.90;99.90
8858;DHT22;4465;50.904;4.696;2023-01-26T10:52:20;2.90;99.90
8858;DHT22;4465;50.904;4.696;2023-01-26T10:55:11;3.00;99.90
8858;DHT22;4465;50.904;4.696;2023-01-26T10:57:41;3.00;99.90
8858;DHT22;4465;50.904;4.696;2023-01-26T11:00:28;3.10;99.90
8858;DHT22;4465;50.904;4.696;2023-01-26T11:05:38;3.10;99.90
8858;DHT22;4465;50.904;4.696;2023-01-26T11:08:34;3.10;99.90
8858;DHT22;4465;50.904;4.696;2023-01-26T11:11:01;3.10;99.90
8858;DHT22;4465;50.904;4.696;2023-01-26T11:13:28;3.10;99.90
8858;DHT22;4465;50.904;4.696;2023-01-26T11:16:19;3.10;99.90
8858;DHT22;4465;50.904;4.696;2023-01-26T11:19:00;3.20;99.90
8858;DHT22;4465;50.904;4.696;2023-01-26T11:21:50;3.20;99.90
8858;DHT22;4465;50.904;4.696;2023-01-26T11:24:30;3.20;99.90
8858;DHT22;4465;50.904;4.696;2023-01-26T11:38:37;3.30;99.90
8858;DHT22;4465;50.904;4.696;2023-01-26T11:41:22;3.40;99.90
8858;DHT22;4465;50.904;4.696;2023-01-26T11:43:57;3.40;99.90
8858;DHT22;4465;50.904;4.696;2023-01-26T11:57:47;3.60;99.90
8858;DHT22;4465;50.904;4.696;2023-01-26T12:00:22;3.60;99.90
8858;DHT22;4465;50.904;4.696;2023-01-26T12:02:58;3.60;99.90
8858;DHT22;4465;50.904;4.696;2023-01-26T12:05:42;3.80;99.90
8858;DHT22;4465;50.904;4.696;2023-01-26T12:08:38;3.70;99.90
8858;DHT22;4465;50.904;4.696;2023-01-26T12:11:24;3.70;99.90
8858;DHT22;4465;50.904;4.696;2023-01-26T12:22:46;3.80;99.90
8858;DHT22;4465;50.904;4.696;2023-01-26T12:33:43;4.00;99.90
8858;DHT22;4465;50.904;4.696;2023-01-26T12:36:43;4.10;99.90
8858;DHT22;4465;50.904;4.696;2023-01-26T12:40:02;4.10;99.90
8858;DHT22;4465;50.904;4.696;2023-01-26T12:45:27;4.20;99.90
8858;DHT22;4465;50.904;4.696;2023-01-26T12:48:00;4.30;99.90
8858;DHT22;4465;50.904;4.696;2023-01-26T12:50:39;4.30;99.90
8858;DHT22;4465;50.904;4.696;2023-01-26T12:53:26;4.40;99.90
8858;DHT22;4465;50.904;4.696;2023-01-26T12:56:12;4.50;99.90
8858;DHT22;4465;50.904;4.696;2023-01-26T12:58:42;4.50;99.90
8858;DHT22;4465;50.904;4.696;2023-01-26T13:01:17;4.60;99.90
8858;DHT22;4465;50.904;4.696;2023-01-26T13:03:57;4.60;99.90
8858;DHT22;4465;50.904;4.696;2023-01-26T13:06:27;4.70;99.90
8858;DHT22;4465;50.904;4.696;2023-01-26T13:11:47;4.80;99.90
8858;DHT22;4465;50.904;4.696;2023-01-26T13:14:37;4.90;99.90
8858;DHT22;4465;50.904;4.696;2023-01-26T13:25:11;5.30;99.90
8858;DHT22;4465;50.904;4.696;2023-01-26T13:35:16;5.70;99.90
8858;DHT22;4465;50.904;4.696;2023-01-26T13:37:59;5.70;99.90
8858;DHT22;4465;50.904;4.696;2023-01-26T13:40:33;5.80;99.90
8858;DHT22;4465;50.904;4.696;2023-01-26T13:43:20;5.90;99.90
8858;DHT22;4465;50.904;4.696;2023-01-26T13:46:18;6.00;99.90
8858;DHT22;4465;50.904;4.696;2023-01-26T13:48:53;6.00;99.90
8858;DHT22;4465;50.904;4.696;2023-01-26T13:51:23;6.10;99.90
8858;DHT22;4465;50.904;4.696;2023-01-26T13:56:29;6.20;99.90
8858;DHT22;4465;50.904;4.696;2023-01-26T13:59:14;6.20;99.90
8858;DHT22;4465;50.904;4.696;2023-01-26T14:01:49;6.30;99.90
8858;DHT22;4465;50.904;4.696;2023-01-26T14:04:19;6.30;99.90
8858;DHT22;4465;50.904;4.696;2023-01-26T14:07:06;6.40;99.90
8858;DHT22;4465;50.904;4.696;2023-01-26T14:09:47;6.40;99.90
8858;DHT22;4465;50.904;4.696;2023-01-26T14:12:26;6.40;99.90
8858;DHT22;4465;50.904;4.696;2023-01-26T14:15:02;6.50;99.90
8858;DHT22;4465;50.904;4.696;2023-01-26T14:17:33;6.50;99.90
8858;DHT22;4465;50.904;4.696;2023-01-26T14:20:06;6.50;99.90
8858;DHT22;4465;50.904;4.696;2023-01-26T14:22:41;6.50;99.90
8858;DHT22;4465;50.904;4.696;2023-01-26T14:25:09;6.50;99.90
8858;DHT22;4465;50.904;4.696;2023-01-26T14:27:39;6.50;99.90
8858;DHT22;4465;50.904;4.696;2023-01-26T14:30:29;6.50;99.90
8858;DHT22;4465;50.904;4.696;2023-01-26T14:33:05;6.50;99.90
8858;DHT22;4465;50.904;4.696;2023-01-26T14:35:32;6.50;99.90
8858;DHT22;4465;50.904;4.696;2023-01-26T14:38:13;6.50;99.90
8858;DHT22;4465;50.904;4.696;2023-01-26T14:40:48;6.60;99.90
8858;DHT22;4465;50.904;4.696;2023-01-26T14:43:15;6.50;99.90
8858;DHT22;4465;50.904;4.696;2023-01-26T14:45:54;6.60;99.90
8858;DHT22;4465;50.904;4.696;2023-01-26T14:48:28;6.60;99.90
8858;DHT22;4465;50.904;4.696;2023-01-26T14:50:56;6.60;99.90
8858;DHT22;4465;50.904;4.696;2023-01-26T14:53:23;6.60;99.90
8858;DHT22;4465;50.904;4.696;2023-01-26T14:55:51;6.70;99.90
8858;DHT22;4465;50.904;4.696;2023-01-26T14:58:30;6.70;99.90
8858;DHT22;4465;50.904;4.696;2023-01-26T15:00:59;6.70;99.90
8858;DHT22;4465;50.904;4.696;2023-01-26T15:03:27;6.70;99.90
8858;DHT22;4465;50.904;4.696;2023-01-26T15:06:05;6.70;99.90
8858;DHT22;4465;50.904;4.696;2023-01-26T15:08:32;6.70;99.90
8858;DHT22;4465;50.904;4.696;2023-01-26T15:11:00;6.70;99.90
8858;DHT22;4465;50.904;4.696;2023-01-26T15:14:02;6.70;99.90
8858;DHT22;4465;50.904;4.696;2023-01-26T15:16:28;6.70;99.90
8858;DHT22;4465;50.904;4.696;2023-01-26T15:19:04;6.80;99.90
8858;DHT22;4465;50.904;4.696;2023-01-26T15:21:35;6.70;99.90
8858;DHT22;4465;50.904;4.696;2023-01-26T15:24:05;6.70;99.90
8858;DHT22;4465;50.904;4.696;2023-01-26T15:26:38;6.70;99.90
8858;DHT22;4465;50.904;4.696;2023-01-26T15:29:14;6.60;99.90
8858;DHT22;4465;50.904;4.696;2023-01-26T15:31:51;6.60;99.90
8858;DHT22;4465;50.904;4.696;2023-01-26T15:34:32;6.60;99.90
8858;DHT22;4465;50.904;4.696;2023-01-26T15:37:31;6.60;99.90
8858;DHT22;4465;50.904;4.696;2023-01-26T15:39:57;6.60;99.90
8858;DHT22;4465;50.904;4.696;2023-01-26T15:42:25;6.60;99.90
8858;DHT22;4465;50.904;4.696;2023-01-26T15:44:53;6.60;99.90
8858;DHT22;4465;50.904;4.696;2023-01-26T15:47:19;6.50;99.90
8858;DHT22;4465;50.904;4.696;2023-01-26T15:49:45;6.50;99.90
8858;DHT22;4465;50.904;4.696;2023-01-26T15:52:16;6.50;99.90
8858;DHT22;4465;50.904;4.696;2023-01-26T15:54:43;6.50;99.90
8858;DHT22;4465;50.904;4.696;2023-01-26T15:57:10;6.50;99.90
8858;DHT22;4465;50.904;4.696;2023-01-26T15:59:37;6.40;99.90
8858;DHT22;4465;50.904;4.696;2023-01-26T16:02:15;6.40;99.90
8858;DHT22;4465;50.904;4.696;2023-01-26T16:04:43;6.40;99.90
8858;DHT22;4465;50.904;4.696;2023-01-26T16:07:17;6.40;99.90
8858;DHT22;4465;50.904;4.696;2023-01-26T16:09:45;6.40;99.90
8858;DHT22;4465;50.904;4.696;2023-01-26T16:12:17;6.40;99.90
8858;DHT22;4465;50.904;4.696;2023-01-26T16:14:46;6.30;99.90
8858;DHT22;4465;50.904;4.696;2023-01-26T16:17:15;6.30;99.90
8858;DHT22;4465;50.904;4.696;2023-01-26T16:19:42;6.30;99.90
8858;DHT22;4465;50.904;4.696;2023-01-26T16:22:09;6.40;99.90
8858;DHT22;4465;50.904;4.696;2023-01-26T16:24:38;6.30;99.90
8858;DHT22;4465;50.904;4.696;2023-01-26T16:27:05;6.30;99.90
8858;DHT22;4465;50.904;4.696;2023-01-26T16:29:32;6.20;99.90
8858;DHT22;4465;50.904;4.696;2023-01-26T16:32:01;6.30;99.90
8858;DHT22;4465;50.904;4.696;2023-01-26T16:34:27;6.20;99.90
8858;DHT22;4465;50.904;4.696;2023-01-26T16:36:54;6.20;99.90
8858;DHT22;4465;50.904;4.696;2023-01-26T16:39:21;6.20;99.90
8858;DHT22;4465;50.904;4.696;2023-01-26T16:41:49;6.20;99.90
8858;DHT22;4465;50.904;4.696;2023-01-26T16:44:16;6.20;99.90
8858;DHT22;4465;50.904;4.696;2023-01-26T16:46:46;6.10;99.90
8858;DHT22;4465;50.904;4.696;2023-01-26T16:49:15;6.10;99.90
8858;DHT22;4465;50.904;4.696;2023-01-26T16:51:47;6.10;99.90
8858;DHT22;4465;50.904;4.696;2023-01-26T16:54:13;6.10;99.90
8858;DHT22;4465;50.904;4.696;2023-01-26T16:56:39;6.10;99.90
8858;DHT22;4465;50.904;4.696;2023-01-26T16:59:07;6.10;99.90
8858;DHT22;4465;50.904;4.696;2023-01-26T17:01:36;6.00;99.90
8858;DHT22;4465;50.904;4.696;2023-01-26T17:04:03;6.00;99.90
8858;DHT22;4465;50.904;4.696;2023-01-26T17:06:30;6.00;99.90
8858;DHT22;4465;50.904;4.696;2023-01-26T17:08:56;6.00;99.90
8858;DHT22;4465;50.904;4.696;2023-01-26T17:11:27;6.00;99.90
8858;DHT22;4465;50.904;4.696;2023-01-26T17:13:56;6.00;99.90
8858;DHT22;4465;50.904;4.696;2023-01-26T17:16:26;6.00;99.90
8858;DHT22;4465;50.904;4.696;2023-01-26T17:19:15;6.00;99.90
8858;DHT22;4465;50.904;4.696;2023-01-26T17:21:41;6.00;99.90
8858;DHT22;4465;50.904;4.696;2023-01-26T17:24:08;6.00;99.90
8858;DHT22;4465;50.904;4.696;2023-01-26T17:26:34;6.00;99.90
8858;DHT22;4465;50.904;4.696;2023-01-26T17:29:00;6.00;99.90
8858;DHT22;4465;50.904;4.696;2023-01-26T17:31:26;6.00;99.90
8858;DHT22;4465;50.904;4.696;2023-01-26T17:33:54;6.00;99.90
8858;DHT22;4465;50.904;4.696;2023-01-26T17:36:20;6.00;99.90
8858;DHT22;4465;50.904;4.696;2023-01-26T17:38:47;6.00;99.90
8858;DHT22;4465;50.904;4.696;2023-01-26T17:41:13;5.90;99.90
8858;DHT22;4465;50.904;4.696;2023-01-26T17:43:40;5.90;99.90
8858;DHT22;4465;50.904;4.696;2023-01-26T17:46:10;5.90;99.90
8858;DHT22;4465;50.904;4.696;2023-01-26T17:48:37;5.90;99.90
8858;DHT22;4465;50.904;4.696;2023-01-26T17:51:09;5.90;99.90
8858;DHT22;4465;50.904;4.696;2023-01-26T17:53:37;5.90;99.90
8858;DHT22;4465;50.904;4.696;2023-01-26T17:56:03;5.90;99.90
8858;DHT22;4465;50.904;4.696;2023-01-26T17:58:29;5.90;99.90
8858;DHT22;4465;50.904;4.696;2023-01-26T18:00:56;5.90;99.90
8858;DHT22;4465;50.904;4.696;2023-01-26T18:03:22;6.00;99.90
8858;DHT22;4465;50.904;4.696;2023-01-26T18:05:55;5.90;99.90
8858;DHT22;4465;50.904;4.696;2023-01-26T18:08:21;5.90;99.90
8858;DHT22;4465;50.904;4.696;2023-01-26T18:10:48;6.00;99.90
8858;DHT22;4465;50.904;4.696;2023-01-26T18:13:16;6.00;99.90
8858;DHT22;4465;50.904;4.696;2023-01-26T18:15:43;5.90;99.90
8858;DHT22;4465;50.904;4.696;2023-01-26T18:18:10;5.90;99.90
8858;DHT22;4465;50.904;4.696;2023-01-26T18:20:36;5.90;99.90
8858;DHT22;4465;50.904;4.696;2023-01-26T18:23:02;5.90;99.90